createdAt,value
2023-02-19T00:01:51.446Z,6.70
2023-02-19T00:04:36.369Z,5.88
2023-02-19T00:07:21.313Z,6.00
2023-02-19T00:10:06.652Z,6.22
2023-02-19T00:12:52.164Z,6.60
2023-02-19T00:15:37.072Z,6.82
2023-02-19T00:21:07.764Z,6.07
2023-02-19T00:23:55.624Z,6.03
2023-02-19T00:26:42.450Z,7.03
2023-02-19T00:29:27.856Z,7.72
2023-02-19T00:32:12.705Z,6.35
2023-02-19T00:34:57.466Z,6.47
2023-02-19T00:37:42.437Z,6.22
2023-02-19T00:40:28.088Z,6.22
2023-02-19T00:43:12.883Z,6.85
2023-02-19T00:45:57.876Z,6.40
2023-02-19T00:51:30.134Z,6.22
2023-02-19T00:54:15.410Z,7.03
2023-02-19T00:57:00.507Z,6.40
2023-02-19T01:02:30.203Z,6.53
2023-02-19T01:07:59.292Z,6.45
2023-02-19T01:13:29.880Z,6.55
2023-02-19T01:16:18.561Z,7.40
2023-02-19T01:19:03.130Z,6.05
2023-02-19T01:24:32.436Z,5.20
2023-02-19T01:27:17.570Z,5.88
2023-02-19T01:30:03.230Z,5.68
2023-02-19T01:32:48.043Z,5.32
2023-02-19T01:35:33.723Z,5.70
2023-02-19T01:38:18.963Z,6.47
2023-02-19T01:41:06.775Z,5.13
2023-02-19T01:44:10.743Z,5.65
2023-02-19T01:46:58.370Z,5.85
2023-02-19T01:49:54.254Z,5.30
2023-02-19T01:52:39.206Z,5.78
2023-02-19T01:55:24.559Z,5.22
2023-02-19T01:58:10.250Z,5.85
2023-02-19T02:00:56.516Z,5.40
2023-02-19T02:03:46.515Z,5.43
2023-02-19T02:06:37.639Z,5.45
2023-02-19T02:09:49.691Z,6.05
2023-02-19T02:12:34.638Z,5.70
2023-02-19T02:18:20.569Z,5.22
2023-02-19T02:21:16.873Z,5.38
2023-02-19T02:24:17.611Z,5.05
2023-02-19T02:27:32.050Z,5.72
2023-02-19T02:30:31.135Z,5.30
2023-02-19T02:33:26.606Z,5.15
2023-02-19T02:36:19.418Z,5.20
2023-02-19T02:39:08.557Z,5.00
2023-02-19T02:42:16.629Z,5.40
2023-02-19T02:45:35.331Z,5.22
2023-02-19T02:48:31.104Z,5.63
2023-02-19T02:51:15.903Z,5.75
2023-02-19T02:54:41.746Z,5.57
2023-02-19T02:57:29.798Z,5.30
2023-02-19T03:01:21.011Z,6.07
2023-02-19T03:04:12.721Z,6.53
2023-02-19T03:07:03.067Z,5.85
2023-02-19T03:09:49.714Z,5.57
2023-02-19T03:12:56.949Z,5.20
2023-02-19T03:16:05.804Z,5.97
2023-02-19T03:19:12.645Z,5.93
2023-02-19T03:22:22.005Z,6.20
2023-02-19T03:25:30.190Z,4.97
2023-02-19T03:28:40.588Z,5.50
2023-02-19T03:31:29.195Z,5.30
2023-02-19T03:34:26.039Z,4.93
2023-02-19T03:37:35.504Z,4.75
2023-02-19T03:40:24.307Z,5.05
2023-02-19T03:43:43.233Z,5.07
2023-02-19T03:46:46.105Z,5.35
2023-02-19T03:49:55.424Z,5.20
2023-02-19T03:53:05.649Z,5.07
2023-02-19T03:56:13.491Z,4.80
2023-02-19T03:59:26.067Z,4.93
2023-02-19T04:02:23.132Z,4.05
2023-02-19T04:05:15.181Z,4.68
2023-02-19T04:08:08.538Z,5.35
2023-02-19T04:10:59.855Z,5.13
2023-02-19T04:13:58.327Z,5.88
2023-02-19T04:16:49.951Z,5.30
2023-02-19T04:19:39.790Z,4.97
2023-02-19T04:22:25.850Z,4.97
2023-02-19T04:25:10.586Z,5.13
2023-02-19T04:27:55.553Z,4.88
2023-02-19T04:33:25.349Z,4.45
2023-02-19T04:36:11.213Z,5.03
2023-02-19T04:38:56.014Z,5.13
2023-02-19T04:41:41.094Z,4.88
2023-02-19T04:47:10.539Z,5.43
2023-02-19T04:52:40.076Z,5.00
2023-02-19T04:58:09.579Z,4.97
2023-02-19T05:00:54.575Z,4.78
2023-02-19T05:03:39.979Z,5.28
2023-02-19T05:06:25.120Z,4.82
2023-02-19T05:09:10.112Z,5.15
2023-02-19T05:11:55.223Z,5.22
2023-02-19T05:14:40.363Z,4.72
2023-02-19T05:17:25.417Z,4.93
2023-02-19T05:20:10.537Z,5.18
2023-02-19T05:22:55.315Z,5.00
2023-02-19T05:25:39.647Z,5.40
2023-02-19T05:28:33.546Z,6.50
2023-02-19T05:31:19.356Z,6.43
2023-02-19T05:34:04.221Z,6.18
2023-02-19T05:39:33.547Z,6.55
2023-02-19T05:45:03.374Z,5.80
2023-02-19T05:50:34.384Z,6.03
2023-02-19T05:56:37.864Z,7.18
2023-02-19T05:59:24.727Z,6.72
2023-02-19T06:02:09.813Z,8.10
2023-02-19T06:04:54.820Z,8.43
2023-02-19T06:07:41.014Z,9.45
2023-02-19T06:10:27.601Z,11.48
2023-02-19T06:13:12.334Z,9.98
2023-02-19T06:15:57.486Z,8.88
2023-02-19T06:21:27.102Z,9.05
2023-02-19T06:24:12.432Z,9.38
2023-02-19T06:26:57.932Z,10.35
2023-02-19T06:29:42.618Z,11.73
2023-02-19T06:32:27.712Z,12.57
2023-02-19T06:35:12.742Z,11.98
2023-02-19T06:37:57.745Z,10.82
2023-02-19T06:40:43.071Z,10.20
2023-02-19T06:46:12.838Z,9.88
2023-02-19T06:48:57.885Z,10.27
2023-02-19T06:51:42.991Z,10.85
2023-02-19T06:54:27.980Z,10.63
2023-02-19T06:57:12.834Z,10.18
2023-02-19T06:59:57.299Z,10.00
2023-02-19T07:02:41.776Z,8.88
2023-02-19T07:05:26.777Z,10.23
2023-02-19T07:08:11.501Z,9.40
2023-02-19T07:10:58.113Z,9.50
2023-02-19T07:13:42.792Z,9.65
2023-02-19T07:16:27.878Z,9.23
2023-02-19T07:19:15.213Z,8.90
2023-02-19T07:22:00.176Z,9.32
2023-02-19T07:24:47.584Z,9.80
2023-02-19T07:27:32.762Z,9.85
2023-02-19T07:30:18.133Z,8.07
2023-02-19T07:35:48.876Z,9.38
2023-02-19T07:38:34.019Z,8.73
2023-02-19T07:41:19.068Z,8.95
2023-02-19T07:44:05.528Z,8.43
2023-02-19T07:49:35.048Z,7.65
2023-02-19T07:52:20.098Z,7.90
2023-02-19T07:55:05.238Z,8.50
2023-02-19T07:57:50.271Z,7.35
2023-02-19T08:00:35.055Z,8.52
2023-02-19T08:03:19.999Z,8.43
2023-02-19T08:06:05.408Z,6.78
2023-02-19T08:08:50.752Z,9.35
2023-02-19T08:11:54.252Z,7.20
2023-02-19T08:14:39.347Z,8.15
2023-02-19T08:17:24.075Z,8.20
2023-02-19T08:20:09.699Z,6.68
2023-02-19T08:22:54.522Z,7.50
2023-02-19T08:25:41.177Z,6.65
2023-02-19T08:28:26.200Z,7.68
2023-02-19T08:31:11.780Z,7.55
2023-02-19T08:33:57.022Z,6.68
2023-02-19T08:39:26.828Z,7.20
2023-02-19T08:42:11.826Z,7.18
2023-02-19T08:47:41.169Z,7.25
2023-02-19T08:50:26.717Z,6.88
2023-02-19T08:53:11.583Z,7.82
2023-02-19T08:55:56.705Z,7.28
2023-02-19T08:58:42.081Z,7.60
2023-02-19T09:01:26.831Z,8.85
2023-02-19T09:04:13.047Z,8.23
2023-02-19T09:06:58.377Z,7.68
2023-02-19T09:09:43.416Z,7.72
2023-02-19T09:15:12.705Z,7.40
2023-02-19T09:17:57.626Z,6.72
2023-02-19T09:20:42.609Z,6.30
2023-02-19T09:23:28.156Z,5.57
2023-02-19T09:26:13.378Z,5.90
2023-02-19T09:28:58.171Z,5.53
2023-02-19T09:31:43.054Z,5.93
2023-02-19T09:34:28.816Z,5.88
2023-02-19T09:37:13.512Z,5.55
2023-02-19T09:39:58.407Z,5.60
2023-02-19T09:42:43.573Z,5.30
2023-02-19T09:45:28.884Z,4.22
2023-02-19T09:48:13.656Z,5.38
2023-02-19T09:51:01.033Z,4.88
2023-02-19T09:53:48.828Z,4.95
2023-02-19T09:56:34.411Z,4.72
2023-02-19T09:59:50.230Z,4.78
2023-02-19T10:02:35.300Z,4.88
2023-02-19T10:05:25.548Z,4.03
2023-02-19T10:08:17.911Z,4.40
2023-02-19T10:11:04.424Z,4.32
2023-02-19T10:14:01.776Z,3.83
2023-02-19T10:16:48.944Z,3.80
2023-02-19T10:19:35.619Z,5.78
2023-02-19T10:22:24.711Z,4.35
2023-02-19T10:25:16.024Z,4.03
2023-02-19T10:28:01.678Z,4.57
2023-02-19T10:30:53.667Z,4.55
2023-02-19T10:33:52.889Z,4.20
2023-02-19T10:36:42.113Z,3.53
2023-02-19T10:39:34.782Z,3.90
2023-02-19T10:42:22.014Z,3.92
2023-02-19T10:45:20.989Z,3.80
2023-02-19T10:48:18.012Z,3.67
2023-02-19T10:51:07.466Z,3.67
2023-02-19T10:54:03.613Z,3.35
2023-02-19T10:56:48.514Z,3.47
2023-02-19T10:59:33.460Z,3.17
2023-02-19T11:02:20.794Z,3.17
2023-02-19T11:05:15.911Z,2.83
2023-02-19T11:08:00.795Z,3.30
2023-02-19T11:10:48.498Z,3.17
2023-02-19T11:13:37.326Z,3.75
2023-02-19T11:16:24.419Z,3.85
2023-02-19T11:19:32.335Z,4.15
2023-02-19T11:22:46.259Z,3.58
2023-02-19T11:25:30.917Z,2.85
2023-02-19T11:28:15.936Z,3.83
2023-02-19T11:31:22.530Z,3.50
2023-02-19T11:34:13.696Z,3.10
2023-02-19T11:37:11.054Z,3.00
2023-02-19T11:43:20.171Z,2.80
2023-02-19T11:46:25.080Z,2.40
2023-02-19T11:49:18.881Z,3.75
2023-02-19T11:52:22.897Z,3.88
2023-02-19T11:55:29.422Z,3.63
2023-02-19T11:58:26.292Z,5.18
2023-02-19T12:01:32.728Z,3.38
2023-02-19T12:04:43.126Z,3.95
2023-02-19T12:07:52.095Z,4.25
2023-02-19T12:10:49.294Z,4.38
2023-02-19T12:13:47.648Z,4.22
2023-02-19T12:17:07.722Z,4.82
2023-02-19T12:20:02.746Z,3.45
2023-02-19T12:23:23.407Z,3.45
2023-02-19T12:26:25.401Z,4.35
2023-02-19T12:29:54.061Z,4.88
2023-02-19T12:33:07.690Z,4.05
2023-02-19T12:36:08.024Z,4.40
2023-02-19T12:39:15.208Z,4.40
2023-02-19T12:42:19.623Z,4.10
2023-02-19T12:45:31.722Z,3.88
2023-02-19T12:48:35.301Z,4.78
2023-02-19T12:51:26.007Z,4.53
2023-02-19T12:54:18.106Z,2.95
2023-02-19T12:57:10.459Z,3.53
2023-02-19T13:00:04.651Z,2.97
2023-02-19T13:03:00.197Z,3.67
2023-02-19T13:05:58.822Z,3.45
2023-02-19T13:09:05.404Z,2.97
2023-02-19T13:11:58.595Z,2.67
2023-02-19T13:14:48.495Z,2.40
2023-02-19T13:17:45.628Z,2.53
2023-02-19T13:20:51.328Z,2.90
2023-02-19T13:23:59.311Z,3.05
2023-02-19T13:27:11.810Z,2.33
2023-02-19T13:30:24.391Z,3.42
2023-02-19T13:33:20.981Z,2.90
2023-02-19T13:36:12.065Z,3.22
2023-02-19T13:41:54.214Z,4.45
2023-02-19T13:47:54.376Z,3.67
2023-02-19T13:50:40.162Z,3.30
2023-02-19T13:53:40.631Z,4.07
2023-02-19T13:56:34.415Z,4.53
2023-02-19T13:59:38.053Z,4.07
2023-02-19T14:02:22.885Z,3.38
2023-02-19T14:05:11.631Z,3.58
2023-02-19T14:07:56.296Z,3.47
2023-02-19T14:10:57.926Z,3.60
2023-02-19T14:13:52.034Z,3.42
2023-02-19T14:16:39.562Z,3.72
2023-02-19T14:19:44.549Z,3.22
2023-02-19T14:22:48.158Z,4.28
2023-02-19T14:25:38.041Z,3.97
2023-02-19T14:28:33.033Z,3.72
2023-02-19T14:31:28.600Z,3.60
2023-02-19T14:34:22.407Z,3.70
2023-02-19T14:37:17.604Z,4.53
2023-02-19T14:40:03.600Z,4.35
2023-02-19T14:42:52.138Z,3.78
2023-02-19T14:45:42.520Z,4.25
2023-02-19T14:48:37.906Z,5.15
2023-02-19T14:51:30.928Z,4.25
2023-02-19T14:54:20.492Z,3.47
2023-02-19T14:57:30.741Z,3.63
2023-02-19T15:00:21.540Z,4.13
2023-02-19T15:03:23.464Z,3.88
2023-02-19T15:06:18.078Z,4.03
2023-02-19T15:09:06.883Z,3.90
2023-02-19T15:11:53.200Z,4.07
2023-02-19T15:14:39.684Z,4.80
2023-02-19T15:17:37.695Z,4.28
2023-02-19T15:20:25.123Z,4.13
2023-02-19T15:23:20.325Z,4.38
2023-02-19T15:26:05.024Z,5.60
2023-02-19T15:28:58.621Z,4.72
2023-02-19T15:31:46.803Z,5.00
2023-02-19T15:34:32.335Z,5.05
2023-02-19T15:37:17.069Z,6.32
2023-02-19T15:40:06.991Z,6.30
2023-02-19T15:42:51.982Z,7.10
2023-02-19T15:45:45.599Z,6.22
2023-02-19T15:48:39.943Z,6.70
2023-02-19T15:51:37.370Z,6.45
2023-02-19T15:54:32.828Z,6.35
2023-02-19T15:57:22.880Z,6.28
2023-02-19T16:00:18.618Z,6.43
2023-02-19T16:03:05.027Z,6.25
2023-02-19T16:06:11.133Z,5.00
2023-02-19T16:09:05.217Z,5.30
2023-02-19T16:11:53.031Z,5.53
2023-02-19T16:14:38.189Z,5.50
2023-02-19T16:17:27.281Z,5.15
2023-02-19T16:20:25.854Z,4.68
2023-02-19T16:23:17.216Z,4.57
2023-02-19T16:26:02.854Z,4.13
2023-02-19T16:28:52.611Z,4.00
2023-02-19T16:31:39.204Z,3.80
2023-02-19T16:34:46.412Z,3.85
2023-02-19T16:37:35.102Z,4.05
2023-02-19T16:40:20.149Z,4.05
2023-02-19T16:43:14.568Z,3.90
2023-02-19T16:46:01.289Z,4.25
2023-02-19T16:48:46.377Z,4.97
2023-02-19T16:51:31.129Z,5.68
2023-02-19T16:54:16.514Z,5.13
2023-02-19T16:57:01.503Z,4.78
2023-02-19T16:59:47.172Z,4.75
2023-02-19T17:02:33.566Z,4.35
2023-02-19T17:05:20.408Z,4.55
2023-02-19T17:08:29.066Z,3.88
2023-02-19T17:11:15.434Z,4.20
2023-02-19T17:14:00.457Z,4.40
2023-02-19T17:16:45.144Z,5.15
2023-02-19T17:19:31.147Z,5.32
2023-02-19T17:22:17.070Z,4.15
2023-02-19T17:25:01.711Z,4.53
2023-02-19T17:27:46.947Z,5.32
2023-02-19T17:30:32.678Z,5.85
2023-02-19T17:33:17.748Z,5.25
2023-02-19T17:36:03.286Z,3.90
2023-02-19T17:38:48.293Z,4.57
2023-02-19T17:44:17.565Z,3.63
2023-02-19T17:47:02.451Z,3.63
2023-02-19T17:49:47.181Z,3.80
2023-02-19T17:52:32.577Z,3.33
2023-02-19T17:55:18.822Z,3.75
2023-02-19T17:58:03.465Z,3.67
2023-02-19T18:03:32.765Z,4.82
2023-02-19T18:09:03.176Z,3.60
2023-02-19T18:11:48.883Z,4.13
2023-02-19T18:14:33.723Z,4.45
2023-02-19T18:17:19.089Z,5.30
2023-02-19T18:20:05.142Z,5.18
2023-02-19T18:22:50.189Z,3.60
2023-02-19T18:25:35.131Z,3.28
2023-02-19T18:28:19.874Z,4.10
2023-02-19T18:31:04.956Z,4.03
2023-02-19T18:33:49.948Z,4.25
2023-02-19T18:36:34.881Z,4.75
2023-02-19T18:42:05.039Z,3.40
2023-02-19T18:47:35.306Z,2.80
2023-02-19T18:50:20.337Z,3.25
2023-02-19T18:53:05.119Z,2.80
2023-02-19T18:55:50.681Z,2.97
2023-02-19T18:58:35.234Z,3.22
2023-02-19T19:01:20.808Z,3.50
2023-02-19T19:04:06.119Z,3.60
2023-02-19T19:06:51.078Z,3.53
2023-02-19T19:12:21.215Z,3.13
2023-02-19T19:17:51.811Z,4.25
2023-02-19T19:20:36.651Z,4.15
2023-02-19T19:26:07.214Z,3.97
2023-02-19T19:28:52.482Z,3.58
2023-02-19T19:31:37.252Z,4.03
2023-02-19T19:34:22.196Z,3.00
2023-02-19T19:37:07.034Z,3.38
2023-02-19T19:39:51.663Z,3.08
2023-02-19T19:45:21.970Z,3.42
2023-02-19T19:50:51.164Z,3.28
2023-02-19T19:53:36.333Z,2.92
2023-02-19T19:59:05.744Z,3.67
2023-02-19T20:01:57.752Z,4.97
2023-02-19T20:04:43.109Z,5.90
2023-02-19T20:07:28.549Z,5.85
2023-02-19T20:10:13.865Z,6.15
2023-02-19T20:12:59.793Z,6.05
2023-02-19T20:15:44.833Z,4.60
2023-02-19T20:18:29.847Z,4.25
2023-02-19T20:21:15.142Z,5.00
2023-02-19T20:24:00.461Z,4.68
2023-02-19T20:29:32.654Z,4.68
2023-02-19T20:32:20.849Z,4.05
2023-02-19T20:35:06.235Z,3.03
2023-02-19T20:37:51.211Z,3.53
2023-02-19T20:40:35.891Z,2.90
2023-02-19T20:43:20.272Z,2.70
2023-02-19T20:46:05.565Z,2.63
2023-02-19T20:48:51.935Z,3.03
2023-02-19T20:51:51.628Z,2.83
2023-02-19T20:54:37.708Z,2.78
2023-02-19T20:57:23.450Z,2.80
2023-02-19T21:00:09.154Z,2.90
2023-02-19T21:02:54.294Z,2.53
2023-02-19T21:08:25.047Z,2.75
2023-02-19T21:11:10.046Z,2.78
2023-02-19T21:16:43.713Z,2.78
2023-02-19T21:19:28.609Z,3.03
2023-02-19T21:22:13.729Z,3.22
2023-02-19T21:24:58.276Z,2.58
2023-02-19T21:27:43.277Z,2.78
2023-02-19T21:33:12.689Z,2.35
2023-02-19T21:35:57.951Z,2.28
2023-02-19T21:41:28.292Z,2.70
2023-02-19T21:44:13.796Z,3.08
2023-02-19T21:46:59.085Z,2.70
2023-02-19T21:52:30.407Z,2.53
2023-02-19T21:55:15.540Z,2.78
2023-02-19T21:58:00.082Z,2.90
2023-02-19T22:00:45.173Z,2.28
2023-02-19T22:06:14.936Z,3.10
2023-02-19T22:11:44.941Z,2.67
2023-02-19T22:14:30.576Z,2.70
2023-02-19T22:20:00.341Z,2.33
2023-02-19T22:25:30.406Z,2.25
2023-02-19T22:28:15.412Z,2.30
2023-02-19T22:33:44.909Z,2.05
2023-02-19T22:36:32.454Z,2.17
2023-02-19T22:39:20.893Z,2.25
2023-02-19T22:42:05.628Z,2.30
2023-02-19T22:47:35.562Z,2.40
2023-02-19T22:50:22.163Z,3.50
2023-02-19T22:53:07.201Z,2.35
2023-02-19T22:55:51.890Z,2.45
2023-02-19T22:58:36.785Z,3.03
2023-02-19T23:04:06.766Z,2.35
2023-02-19T23:06:51.930Z,2.22
2023-02-19T23:09:37.015Z,2.17
2023-02-19T23:12:22.656Z,2.50
2023-02-19T23:15:09.422Z,2.20
2023-02-19T23:17:54.096Z,2.28
2023-02-19T23:20:39.429Z,2.03
2023-02-19T23:26:09.854Z,1.67
2023-02-19T23:28:54.760Z,1.98
2023-02-19T23:34:24.126Z,2.20
2023-02-19T23:39:54.449Z,1.85
2023-02-19T23:42:38.991Z,2.33
2023-02-19T23:45:24.130Z,2.05
2023-02-19T23:48:08.766Z,2.92
2023-02-19T23:50:53.848Z,2.47
2023-02-19T23:53:38.856Z,3.20
2023-02-19T23:59:09.202Z,2.92
